Search for airport 
image banner adimage banner adimage banner ad
image banner ad

71N - Sunbury

Located in Sunbury, United States

ICAO - 71N, IATA -

Data provided by Airmate  

General information

Coordinates: N40°53'30" W76°46'44"
Elevation is 450 feet MSL.
Magnetic variation is -11° East
View others Airports in Pennsylvania

Operational data

Special qualification required
Current time UTC:
Current local time:
Weather at : KSEG - Penn Valley ( 11 km )
METAR: KSEG 150653Z AUTO 00000KT 1/4SM FG VV002 15/15 A2981 RMK AO2 SLP091 T01500150
View NOTAMs / SUP AIP / TFR affecting this airport [VIEW]
Communications frequencies: [VIEW]

Runways:

RWY identifierQFULength (ft)Width (ft)SurfaceLDA (ft)
053250250GRASS
233250250GRASS

Airport contact information

Address: Sunbury United States

Satellite view of 71N